createdAt,value
2018-06-22T00:00:48.409Z,94.80
2018-06-22T00:03:16.080Z,95.50
2018-06-22T00:05:43.713Z,95.80
2018-06-22T00:08:11.341Z,94.70
2018-06-22T00:10:38.969Z,95.20
2018-06-22T00:13:07.629Z,94.80
2018-06-22T00:15:35.229Z,94.70
2018-06-22T00:18:02.855Z,95.00
2018-06-22T00:20:30.493Z,95.30
2018-06-22T00:22:58.128Z,95.40
2018-06-22T00:25:25.740Z,95.20
2018-06-22T00:27:54.434Z,95.20
2018-06-22T00:30:22.057Z,94.90
2018-06-22T00:32:49.680Z,95.50
2018-06-22T00:35:17.289Z,96.10
2018-06-22T00:37:44.905Z,95.40
2018-06-22T00:40:12.525Z,95.20
2018-06-22T00:42:40.132Z,95.80
2018-06-22T00:45:07.801Z,96.20
2018-06-22T00:47:35.428Z,95.90
2018-06-22T00:50:03.781Z,96.90
2018-06-22T00:52:31.424Z,96.20
2018-06-22T00:54:59.032Z,95.90
2018-06-22T00:57:26.678Z,96.30
2018-06-22T00:59:54.284Z,96.50
2018-06-22T01:02:21.892Z,96.70
2018-06-22T01:04:50.516Z,97.00
2018-06-22T01:07:18.165Z,96.80
2018-06-22T01:09:46.418Z,97.20
2018-06-22T01:12:15.200Z,97.30
2018-06-22T01:14:42.870Z,97.50
2018-06-22T01:17:10.472Z,97.60
2018-06-22T01:19:38.101Z,98.10
2018-06-22T01:22:06.769Z,98.20
2018-06-22T01:24:34.396Z,98.50
2018-06-22T01:27:03.085Z,98.60
2018-06-22T01:29:31.661Z,98.60
2018-06-22T01:32:00.276Z,98.60
2018-06-22T01:34:28.653Z,99.20
2018-06-22T01:36:56.289Z,99.30
2018-06-22T01:39:23.920Z,99.30
2018-06-22T01:41:51.818Z,99.90
2018-06-22T01:44:19.472Z,99.80
2018-06-22T01:46:47.105Z,99.70
2018-06-22T01:49:14.781Z,99.90
2018-06-22T01:51:42.368Z,99.90
2018-06-22T01:54:10.020Z,99.80
2018-06-22T01:56:37.671Z,99.90
2018-06-22T01:59:05.268Z,99.90
2018-06-22T02:01:33.444Z,99.90
2018-06-22T02:04:01.693Z,99.90
2018-06-22T02:06:30.476Z,99.90
2018-06-22T02:08:58.818Z,99.90
2018-06-22T02:11:26.416Z,99.90
2018-06-22T02:13:54.038Z,99.90
2018-06-22T02:16:21.673Z,99.90
2018-06-22T02:18:49.271Z,99.90
2018-06-22T02:21:16.976Z,99.90
2018-06-22T02:23:44.569Z,99.90
2018-06-22T02:26:15.869Z,99.90
2018-06-22T02:28:43.484Z,99.90
2018-06-22T02:31:11.097Z,99.90
2018-06-22T02:33:38.704Z,99.90
2018-06-22T02:36:06.317Z,99.90
2018-06-22T02:38:33.969Z,99.90
2018-06-22T02:41:04.103Z,99.90
2018-06-22T02:43:31.958Z,99.90
2018-06-22T02:46:00.057Z,99.90
2018-06-22T02:48:27.661Z,99.90
2018-06-22T02:50:55.885Z,99.90
2018-06-22T02:53:23.525Z,99.90
2018-06-22T02:55:51.129Z,99.90
2018-06-22T02:58:18.736Z,99.90
2018-06-22T03:00:46.921Z,99.90
2018-06-22T03:03:14.565Z,99.90
2018-06-22T03:05:42.815Z,99.90
2018-06-22T03:08:10.429Z,99.90
2018-06-22T03:10:38.041Z,99.90
2018-06-22T03:13:05.652Z,99.90
2018-06-22T03:15:33.303Z,99.90
2018-06-22T03:18:01.926Z,99.90
2018-06-22T03:20:29.588Z,99.90
2018-06-22T03:22:57.201Z,99.90
2018-06-22T03:25:24.809Z,99.90
2018-06-22T03:27:52.452Z,99.90
2018-06-22T03:30:20.648Z,99.90
2018-06-22T03:32:48.318Z,99.90
2018-06-22T03:35:16.042Z,99.90
2018-06-22T03:37:43.716Z,99.90
2018-06-22T03:40:11.352Z,99.90
2018-06-22T03:42:40.880Z,99.90
2018-06-22T03:45:08.522Z,99.90
2018-06-22T03:47:36.128Z,99.90
2018-06-22T03:50:03.784Z,99.90
2018-06-22T03:52:31.460Z,99.90
2018-06-22T03:54:59.098Z,99.90
2018-06-22T03:57:26.720Z,99.90
2018-06-22T03:59:54.360Z,99.90
2018-06-22T04:02:21.987Z,99.90
2018-06-22T04:04:49.616Z,99.90
2018-06-22T04:07:17.236Z,99.90
2018-06-22T04:09:45.315Z,99.90
2018-06-22T04:12:12.935Z,99.90
2018-06-22T04:14:40.565Z,99.90
2018-06-22T04:17:08.196Z,99.90
2018-06-22T04:19:35.805Z,99.90
2018-06-22T04:22:03.416Z,99.90
2018-06-22T04:24:31.049Z,99.90
2018-06-22T04:26:58.705Z,99.90
2018-06-22T04:29:26.328Z,99.90
2018-06-22T04:31:53.955Z,99.90
2018-06-22T04:34:21.584Z,99.90
2018-06-22T04:36:49.233Z,99.90
2018-06-22T04:39:18.125Z,99.90
2018-06-22T04:41:45.759Z,99.90
2018-06-22T04:44:13.433Z,99.90
2018-06-22T04:46:41.029Z,99.90
2018-06-22T04:49:08.669Z,99.90
2018-06-22T04:51:36.305Z,99.90
2018-06-22T04:54:03.929Z,99.90
2018-06-22T04:56:32.620Z,99.90
2018-06-22T04:59:00.883Z,99.90
2018-06-22T05:01:29.030Z,99.90
2018-06-22T05:03:56.657Z,99.90
2018-06-22T05:06:24.264Z,99.90
2018-06-22T05:08:51.890Z,99.90
2018-06-22T05:11:19.501Z,99.90
2018-06-22T05:13:47.169Z,99.90
2018-06-22T05:16:14.773Z,99.90
2018-06-22T05:18:43.038Z,99.90
2018-06-22T05:21:10.652Z,99.90
2018-06-22T05:23:38.297Z,99.90
2018-06-22T05:26:05.960Z,99.90
2018-06-22T05:28:33.721Z,99.90
2018-06-22T05:31:01.333Z,99.90
2018-06-22T05:33:28.952Z,99.90
2018-06-22T05:35:56.644Z,99.90
2018-06-22T05:38:24.250Z,99.90
2018-06-22T05:40:51.881Z,99.90
2018-06-22T05:43:19.562Z,99.90
2018-06-22T05:45:47.508Z,99.90
2018-06-22T05:48:15.132Z,99.90
2018-06-22T05:50:42.875Z,99.90
2018-06-22T05:53:10.440Z,99.90
2018-06-22T05:55:38.073Z,99.90
2018-06-22T05:58:05.709Z,99.90
2018-06-22T06:00:33.332Z,99.90
2018-06-22T06:03:00.941Z,99.90
2018-06-22T06:05:28.541Z,99.90
2018-06-22T06:07:56.164Z,99.90
2018-06-22T06:10:23.813Z,99.90
2018-06-22T06:12:51.480Z,99.90
2018-06-22T06:15:19.816Z,99.90
2018-06-22T06:17:49.624Z,99.90
2018-06-22T06:20:17.342Z,99.90
2018-06-22T06:22:44.963Z,99.90
2018-06-22T06:25:12.563Z,99.90
2018-06-22T06:27:40.192Z,99.90
2018-06-22T06:30:07.858Z,99.90
2018-06-22T06:32:35.508Z,99.90
2018-06-22T06:35:03.281Z,99.90
2018-06-22T06:37:30.889Z,99.90
2018-06-22T06:39:58.512Z,99.90
2018-06-22T06:42:26.112Z,99.90
2018-06-22T06:44:53.754Z,99.90
2018-06-22T06:47:21.388Z,99.90
2018-06-22T06:49:49.020Z,99.90
2018-06-22T06:52:16.648Z,99.90
2018-06-22T06:54:44.920Z,99.90
2018-06-22T06:57:12.525Z,99.90
2018-06-22T06:59:40.112Z,99.90
2018-06-22T07:02:07.748Z,99.90
2018-06-22T07:04:36.256Z,99.90
2018-06-22T07:07:04.369Z,99.90
2018-06-22T07:09:31.990Z,99.90
2018-06-22T07:12:00.380Z,99.90
2018-06-22T07:14:28.038Z,99.60
2018-06-22T07:16:55.636Z,99.90
2018-06-22T07:19:23.242Z,99.90
2018-06-22T07:21:50.881Z,99.90
2018-06-22T07:24:19.081Z,99.90
2018-06-22T07:26:46.841Z,99.90
2018-06-22T07:29:14.451Z,98.50
2018-06-22T07:31:42.045Z,98.00
2018-06-22T07:34:09.668Z,99.40
2018-06-22T07:36:37.309Z,99.90
2018-06-22T07:39:07.692Z,99.90
2018-06-22T07:41:35.320Z,99.30
2018-06-22T07:44:03.071Z,99.90
2018-06-22T07:46:30.941Z,99.90
2018-06-22T07:49:00.568Z,99.90
2018-06-22T07:51:28.200Z,99.90
2018-06-22T07:53:56.893Z,99.90
2018-06-22T07:56:24.524Z,98.50
2018-06-22T07:58:52.132Z,99.90
2018-06-22T08:01:19.752Z,99.80
2018-06-22T08:03:47.525Z,99.30
2018-06-22T08:06:15.142Z,98.40
2018-06-22T08:08:42.820Z,99.40
2018-06-22T08:11:10.442Z,98.90
2018-06-22T08:13:39.046Z,99.90
2018-06-22T08:16:06.728Z,99.50
2018-06-22T08:18:34.392Z,98.90
2018-06-22T08:21:02.027Z,99.00
2018-06-22T08:23:29.684Z,99.30
2018-06-22T08:25:57.301Z,99.90
2018-06-22T08:28:24.896Z,99.10
2018-06-22T08:30:52.519Z,97.60
2018-06-22T08:33:20.270Z,98.50
2018-06-22T08:35:48.005Z,99.90
2018-06-22T08:38:15.541Z,98.30
2018-06-22T08:40:44.194Z,97.30
2018-06-22T08:43:11.788Z,98.60
2018-06-22T08:45:39.408Z,97.90
2018-06-22T08:48:07.097Z,97.40
2018-06-22T08:50:34.705Z,98.90
2018-06-22T08:53:02.364Z,97.40
2018-06-22T08:55:29.985Z,97.30
2018-06-22T08:57:57.685Z,97.10
2018-06-22T09:00:25.284Z,97.50
2018-06-22T09:02:52.884Z,95.40
2018-06-22T09:05:20.509Z,96.80
2018-06-22T09:07:48.108Z,96.10
2018-06-22T09:10:15.753Z,96.30
2018-06-22T09:12:43.352Z,96.90
2018-06-22T09:15:10.997Z,97.00
2018-06-22T09:17:38.613Z,94.50
2018-06-22T09:20:07.265Z,94.20
2018-06-22T09:22:34.864Z,93.40
2018-06-22T09:25:02.477Z,94.60
2018-06-22T09:27:30.117Z,94.00
2018-06-22T09:29:57.715Z,93.60
2018-06-22T09:32:25.328Z,94.60
2018-06-22T09:34:52.927Z,92.20
2018-06-22T09:37:20.567Z,93.70
2018-06-22T09:39:48.913Z,97.30
2018-06-22T09:42:16.618Z,89.80
2018-06-22T09:44:44.237Z,90.00
2018-06-22T09:47:11.945Z,93.50
2018-06-22T09:49:40.577Z,92.20
2018-06-22T09:52:08.220Z,93.50
2018-06-22T09:54:35.870Z,93.60
2018-06-22T09:57:04.049Z,93.40
2018-06-22T09:59:31.665Z,95.10
2018-06-22T10:01:59.285Z,95.70
2018-06-22T10:04:27.903Z,94.60
2018-06-22T10:06:55.520Z,93.10
2018-06-22T10:09:23.132Z,93.20
2018-06-22T10:11:50.733Z,90.80
2018-06-22T10:14:18.328Z,89.70
2018-06-22T10:19:14.152Z,91.60
2018-06-22T10:21:41.765Z,91.40
2018-06-22T10:24:09.384Z,91.80
2018-06-22T10:29:04.688Z,90.00
2018-06-22T10:31:32.300Z,89.50
2018-06-22T10:34:00.442Z,90.60
2018-06-22T10:36:28.668Z,93.20
2018-06-22T10:38:56.308Z,90.80
2018-06-22T10:41:23.940Z,91.10
2018-06-22T10:43:51.603Z,90.50
2018-06-22T10:46:20.334Z,91.10
2018-06-22T10:48:47.994Z,92.60
2018-06-22T10:51:15.805Z,89.30
2018-06-22T10:53:43.426Z,90.40
2018-06-22T10:56:11.144Z,90.60
2018-06-22T10:58:38.844Z,90.00
2018-06-22T11:01:06.725Z,87.70
2018-06-22T11:03:34.376Z,90.30
2018-06-22T11:06:02.018Z,90.90
2018-06-22T11:08:30.665Z,93.80
2018-06-22T11:10:58.312Z,93.10
2018-06-22T11:13:25.944Z,91.10
2018-06-22T11:15:53.585Z,87.30
2018-06-22T11:18:21.275Z,89.30
2018-06-22T11:20:48.880Z,87.50
2018-06-22T11:23:16.557Z,90.00
2018-06-22T11:25:44.228Z,87.90
2018-06-22T11:28:11.861Z,90.00
2018-06-22T11:30:39.477Z,93.00
2018-06-22T11:33:07.400Z,90.10
2018-06-22T11:35:35.062Z,83.50
2018-06-22T11:38:02.652Z,84.80
2018-06-22T11:40:30.385Z,82.40
2018-06-22T11:42:57.988Z,87.60
2018-06-22T11:45:25.660Z,86.70
2018-06-22T11:47:53.275Z,85.00
2018-06-22T11:52:48.381Z,88.20
2018-06-22T11:55:16.013Z,85.60
2018-06-22T11:57:44.384Z,82.60
2018-06-22T12:00:12.093Z,83.90
2018-06-22T12:02:39.724Z,84.70
2018-06-22T12:05:07.377Z,84.30
2018-06-22T12:07:35.013Z,82.00
2018-06-22T12:10:02.678Z,82.40
2018-06-22T12:12:30.512Z,84.20
2018-06-22T12:14:58.160Z,88.90
2018-06-22T12:17:26.781Z,89.10
2018-06-22T12:19:54.388Z,89.10
2018-06-22T12:22:22.008Z,91.40
2018-06-22T12:24:49.613Z,92.10
2018-06-22T12:27:17.232Z,90.40
2018-06-22T12:29:44.848Z,90.60
2018-06-22T12:32:12.485Z,90.00
2018-06-22T12:34:40.113Z,91.60
2018-06-22T12:37:07.746Z,91.30
2018-06-22T12:39:35.376Z,90.90
2018-06-22T12:42:03.017Z,92.60
2018-06-22T12:44:30.685Z,90.20
2018-06-22T12:46:58.320Z,91.40
2018-06-22T12:49:25.944Z,91.90
2018-06-22T12:51:53.560Z,89.10
2018-06-22T12:54:21.200Z,82.10
2018-06-22T12:56:48.805Z,88.80
2018-06-22T12:59:16.421Z,88.60
2018-06-22T13:01:44.021Z,90.20
2018-06-22T13:04:11.670Z,90.30
2018-06-22T13:06:39.316Z,90.50
2018-06-22T13:09:09.218Z,90.30
2018-06-22T13:11:36.811Z,90.50
2018-06-22T13:14:04.760Z,91.10
2018-06-22T13:16:33.196Z,91.60
2018-06-22T13:19:00.829Z,92.00
2018-06-22T13:21:28.460Z,92.10
2018-06-22T13:23:56.121Z,93.00
2018-06-22T13:26:24.766Z,92.40
2018-06-22T13:28:52.396Z,91.90
2018-06-22T13:31:20.064Z,93.80
2018-06-22T13:33:47.724Z,91.30
2018-06-22T13:36:16.002Z,90.50
2018-06-22T13:38:43.610Z,90.20
2018-06-22T13:41:11.221Z,90.60
2018-06-22T13:43:38.891Z,90.50
2018-06-22T13:46:06.759Z,91.60
2018-06-22T13:48:34.376Z,92.10
2018-06-22T13:51:02.007Z,90.50
2018-06-22T13:55:57.149Z,90.30
2018-06-22T13:58:25.168Z,91.90
2018-06-22T14:00:52.820Z,90.20
2018-06-22T14:03:20.441Z,90.10
2018-06-22T14:05:53.717Z,90.70
2018-06-22T14:10:49.906Z,90.30
2018-06-22T14:13:17.527Z,92.20
2018-06-22T14:15:46.433Z,91.00
2018-06-22T14:18:14.035Z,91.00
2018-06-22T14:20:41.648Z,92.10
2018-06-22T14:23:09.287Z,85.80
2018-06-22T14:25:36.894Z,82.20
2018-06-22T14:28:04.537Z,84.80
2018-06-22T14:30:32.173Z,79.80
2018-06-22T14:33:00.457Z,81.70
2018-06-22T14:35:28.752Z,81.00
2018-06-22T14:40:23.910Z,83.30
2018-06-22T14:42:51.537Z,83.00
2018-06-22T14:45:20.172Z,86.80
2018-06-22T14:47:47.841Z,82.60
2018-06-22T14:50:16.831Z,84.00
2018-06-22T14:52:45.416Z,81.90
2018-06-22T14:56:22.609Z,86.70
2018-06-22T14:58:56.924Z,85.20
2018-06-22T15:01:30.236Z,74.80
2018-06-22T15:04:03.528Z,71.30
2018-06-22T15:06:36.852Z,69.20
2018-06-22T15:09:07.453Z,72.70
2018-06-22T15:11:35.126Z,75.10
2018-06-22T15:14:02.996Z,78.50
2018-06-22T15:16:30.637Z,76.80
2018-06-22T15:18:58.228Z,75.50
2018-06-22T15:21:25.836Z,77.70
2018-06-22T15:23:53.446Z,80.80
2018-06-22T15:26:21.289Z,74.40
2018-06-22T15:28:48.933Z,74.00
2018-06-22T15:31:16.636Z,72.50
2018-06-22T15:33:50.060Z,77.90
2018-06-22T15:36:23.328Z,74.30
2018-06-22T15:38:56.612Z,71.50
2018-06-22T15:41:29.922Z,72.20
2018-06-22T15:44:03.209Z,75.60
2018-06-22T15:49:09.794Z,74.40
2018-06-22T15:51:43.085Z,77.00
2018-06-22T15:54:16.340Z,76.90
2018-06-22T15:56:44.025Z,76.50
2018-06-22T15:59:11.650Z,72.50
2018-06-22T16:01:39.283Z,73.60
2018-06-22T16:04:10.909Z,71.40
2018-06-22T16:06:38.772Z,68.30
2018-06-22T16:09:08.074Z,65.70
2018-06-22T16:11:36.113Z,67.10
2018-06-22T16:14:10.133Z,66.00
2018-06-22T16:16:44.810Z,67.40
2018-06-22T16:19:18.292Z,69.90
2018-06-22T16:21:51.596Z,69.50
2018-06-22T16:24:24.891Z,71.50
2018-06-22T16:26:58.248Z,68.90
2018-06-22T16:29:25.856Z,66.40
2018-06-22T16:34:21.242Z,65.00
2018-06-22T16:36:48.845Z,63.10
2018-06-22T16:39:16.453Z,59.40
2018-06-22T16:41:44.042Z,59.60
2018-06-22T16:44:11.688Z,59.60
2018-06-22T16:46:39.296Z,58.30
2018-06-22T16:49:06.913Z,56.00
2018-06-22T16:51:35.531Z,55.70
2018-06-22T16:54:03.205Z,55.80
2018-06-22T16:56:30.993Z,53.10
2018-06-22T16:59:02.143Z,52.00
2018-06-22T17:01:30.025Z,52.50
2018-06-22T17:03:57.740Z,50.30
2018-06-22T17:06:26.363Z,52.40
2018-06-22T17:08:59.599Z,54.60
2018-06-22T17:11:32.991Z,57.50
2018-06-22T17:14:06.384Z,59.30
2018-06-22T17:16:39.668Z,59.40
2018-06-22T17:19:07.380Z,60.90
2018-06-22T17:21:35.017Z,61.90
2018-06-22T17:24:02.756Z,63.00
2018-06-22T17:26:30.419Z,63.30
2018-06-22T17:28:58.048Z,65.70
2018-06-22T17:31:25.716Z,67.80
2018-06-22T17:33:53.368Z,68.70
2018-06-22T17:36:21.007Z,69.90
2018-06-22T17:38:48.616Z,70.00
2018-06-22T17:41:16.255Z,70.50
2018-06-22T17:43:43.907Z,72.00
2018-06-22T17:46:11.601Z,72.30
2018-06-22T17:48:39.175Z,72.70
2018-06-22T17:51:06.844Z,73.00
2018-06-22T17:53:34.472Z,74.30
2018-06-22T17:56:02.140Z,75.20
2018-06-22T17:58:29.804Z,74.50
2018-06-22T18:01:03.117Z,73.60
2018-06-22T18:03:36.360Z,75.70
2018-06-22T18:06:09.638Z,78.40
2018-06-22T18:08:45.633Z,79.20
2018-06-22T18:11:19.004Z,80.00
2018-06-22T18:13:47.637Z,80.00
2018-06-22T18:16:15.245Z,79.70
2018-06-22T18:18:42.940Z,80.20
2018-06-22T18:21:10.625Z,80.10
2018-06-22T18:23:38.272Z,80.70
2018-06-22T18:26:06.116Z,81.20
2018-06-22T18:28:33.735Z,82.60
2018-06-22T18:31:02.416Z,83.30
2018-06-22T18:33:30.112Z,82.60
2018-06-22T18:35:57.765Z,83.80
2018-06-22T18:38:25.408Z,83.00
2018-06-22T18:40:53.589Z,85.40
2018-06-22T18:43:27.006Z,86.30
2018-06-22T18:45:54.700Z,87.10
2018-06-22T18:48:22.371Z,87.80
2018-06-22T18:50:50.058Z,88.60
2018-06-22T18:53:23.352Z,87.30
2018-06-22T18:55:57.677Z,89.20
2018-06-22T18:58:31.104Z,89.20
2018-06-22T19:01:04.560Z,89.80
2018-06-22T19:03:37.852Z,90.00
2018-06-22T19:06:05.473Z,90.40
2018-06-22T19:08:33.143Z,90.70
2018-06-22T19:11:00.792Z,90.60
2018-06-22T19:13:28.422Z,91.00
2018-06-22T19:15:56.720Z,91.40
2018-06-22T19:18:25.301Z,91.60
2018-06-22T19:20:52.933Z,92.40
2018-06-22T19:23:20.565Z,92.30
2018-06-22T19:25:48.257Z,92.30
2018-06-22T19:30:43.454Z,93.70
2018-06-22T19:33:11.068Z,95.30
2018-06-22T19:38:07.292Z,94.50
2018-06-22T19:40:35.054Z,94.80
2018-06-22T19:43:02.704Z,94.60
2018-06-22T19:45:36.100Z,95.90
2018-06-22T19:48:10.119Z,95.40
2018-06-22T19:50:43.377Z,96.50
2018-06-22T19:53:16.728Z,96.70
2018-06-22T19:55:44.356Z,96.60
2018-06-22T19:58:11.997Z,97.00
2018-06-22T20:00:40.640Z,97.80
2018-06-22T20:03:08.264Z,97.80
2018-06-22T20:05:35.905Z,98.60
2018-06-22T20:08:03.608Z,99.40
2018-06-22T20:10:31.240Z,99.50
2018-06-22T20:12:58.884Z,99.50
2018-06-22T20:15:27.210Z,99.20
2018-06-22T20:17:55.476Z,99.00
2018-06-22T20:20:23.140Z,99.80
2018-06-22T20:22:51.416Z,99.40
2018-06-22T20:25:24.997Z,99.70
2018-06-22T20:27:53.400Z,99.20
2018-06-22T20:30:21.828Z,99.90
2018-06-22T20:32:50.637Z,99.90
2018-06-22T20:35:23.937Z,99.90
2018-06-22T20:37:57.324Z,99.90
2018-06-22T20:41:28.448Z,99.90
2018-06-22T20:44:01.913Z,99.90
2018-06-22T20:46:35.088Z,99.90
2018-06-22T20:49:08.269Z,99.90
2018-06-22T20:51:43.113Z,99.90
2018-06-22T20:54:11.726Z,99.90
2018-06-22T20:56:40.097Z,99.90
2018-06-22T20:59:07.837Z,99.90
2018-06-22T21:01:35.465Z,99.90
2018-06-22T21:04:03.189Z,99.90
2018-06-22T21:06:31.949Z,99.90
2018-06-22T21:08:59.600Z,99.90
2018-06-22T21:11:27.226Z,99.90
2018-06-22T21:13:55.320Z,99.90
2018-06-22T21:16:23.949Z,99.90
2018-06-22T21:18:51.601Z,99.90
2018-06-22T21:21:25.020Z,99.90
2018-06-22T21:23:52.656Z,99.90
2018-06-22T21:26:20.293Z,99.90
2018-06-22T21:28:53.669Z,99.90
2018-06-22T21:31:26.916Z,99.90
2018-06-22T21:34:00.266Z,99.90
2018-06-22T21:36:33.763Z,99.90
2018-06-22T21:39:04.683Z,99.90
2018-06-22T21:41:32.310Z,99.90
2018-06-22T21:43:59.996Z,99.90
2018-06-22T21:46:27.657Z,99.90
2018-06-22T21:48:55.331Z,99.90
2018-06-22T21:51:22.956Z,99.90
2018-06-22T21:53:50.566Z,99.90
2018-06-22T21:56:18.188Z,99.90
2018-06-22T21:58:45.815Z,99.90
2018-06-22T22:01:13.492Z,99.90
2018-06-22T22:03:41.125Z,99.90
2018-06-22T22:06:08.804Z,99.90
2018-06-22T22:08:36.477Z,99.90
2018-06-22T22:11:07.250Z,99.90
2018-06-22T22:13:35.521Z,99.90
2018-06-22T22:16:03.229Z,99.90
2018-06-22T22:18:30.925Z,99.90
2018-06-22T22:20:58.669Z,99.90
2018-06-22T22:23:26.312Z,99.90
2018-06-22T22:25:53.954Z,99.90
2018-06-22T22:28:21.752Z,99.90
2018-06-22T22:30:49.461Z,99.90
2018-06-22T22:33:17.100Z,99.90
2018-06-22T22:35:44.740Z,99.90
2018-06-22T22:38:12.400Z,99.90
2018-06-22T22:40:40.112Z,99.90
2018-06-22T22:43:07.737Z,99.90
2018-06-22T22:45:35.376Z,99.90
2018-06-22T22:48:03.076Z,99.90
2018-06-22T22:50:30.818Z,99.90
2018-06-22T22:52:59.080Z,99.90
2018-06-22T22:55:26.712Z,99.90
2018-06-22T22:57:54.828Z,99.90
2018-06-22T23:00:22.710Z,99.90
2018-06-22T23:02:50.353Z,99.90
2018-06-22T23:05:18.128Z,99.90
2018-06-22T23:07:45.784Z,99.90
2018-06-22T23:10:13.505Z,99.90
2018-06-22T23:12:41.141Z,99.90
2018-06-22T23:17:36.549Z,99.90
2018-06-22T23:20:04.541Z,99.90
2018-06-22T23:22:43.760Z,99.90
2018-06-22T23:25:11.430Z,99.90
2018-06-22T23:27:39.044Z,99.90
2018-06-22T23:30:06.849Z,99.90
2018-06-22T23:32:34.459Z,99.90
2018-06-22T23:35:02.161Z,99.90
2018-06-22T23:37:30.933Z,99.90
2018-06-22T23:39:58.559Z,99.90
2018-06-22T23:42:26.204Z,99.90
2018-06-22T23:44:53.840Z,99.90
2018-06-22T23:47:21.472Z,99.90
2018-06-22T23:49:49.109Z,99.90
2018-06-22T23:52:16.748Z,99.90
2018-06-22T23:57:12.440Z,99.90
2018-06-22T23:59:40.061Z,99.90
